createdAt,value
2019-03-28T00:01:13.570Z,14.00
2019-03-28T00:03:42.012Z,13.87
2019-03-28T00:06:10.448Z,13.03
2019-03-28T00:08:38.863Z,14.20
2019-03-28T00:11:07.283Z,13.75
2019-03-28T00:13:35.703Z,13.67
2019-03-28T00:16:04.635Z,14.90
2019-03-28T00:18:33.071Z,13.95
2019-03-28T00:21:01.539Z,13.88
2019-03-28T00:23:49.874Z,14.13
2019-03-28T00:26:29.365Z,13.30
2019-03-28T00:28:48.444Z,13.58
2019-03-28T00:31:16.879Z,14.47
2019-03-28T00:33:45.650Z,13.90
2019-03-28T00:36:14.101Z,13.85
2019-03-28T00:38:42.557Z,14.50
2019-03-28T00:41:10.996Z,15.08
2019-03-28T00:43:39.416Z,14.53
2019-03-28T00:46:07.914Z,14.13
2019-03-28T00:48:36.393Z,14.43
2019-03-28T00:51:05.044Z,17.17
2019-03-28T00:53:36.357Z,16.55
2019-03-28T00:56:05.057Z,15.50
2019-03-28T00:58:34.186Z,15.68
2019-03-28T01:01:02.994Z,15.90
2019-03-28T01:03:31.395Z,15.43
2019-03-28T01:06:01.513Z,16.42
2019-03-28T01:08:29.933Z,14.85
2019-03-28T01:11:00.035Z,15.48
2019-03-28T01:13:28.437Z,14.70
2019-03-28T01:15:56.945Z,16.15
2019-03-28T01:18:26.914Z,15.88
2019-03-28T01:20:55.461Z,15.45
2019-03-28T01:23:23.943Z,16.55
2019-03-28T01:25:55.474Z,16.48
2019-03-28T01:30:51.553Z,15.48
2019-03-28T01:33:19.946Z,15.13
2019-03-28T01:35:48.448Z,16.87
2019-03-28T01:38:17.279Z,17.27
2019-03-28T01:40:46.059Z,17.12
2019-03-28T01:43:14.575Z,15.80
2019-03-28T01:45:43.106Z,17.00
2019-03-28T01:48:11.527Z,16.50
2019-03-28T01:50:40.007Z,17.77
2019-03-28T01:53:08.425Z,15.28
2019-03-28T01:55:36.845Z,14.75
2019-03-28T01:58:05.427Z,18.12
2019-03-28T02:00:34.077Z,18.07
2019-03-28T02:03:02.484Z,17.12
2019-03-28T02:05:30.889Z,18.75
2019-03-28T02:08:02.562Z,16.42
2019-03-28T02:10:29.905Z,17.17
2019-03-28T02:12:58.331Z,17.70
2019-03-28T02:15:26.817Z,17.35
2019-03-28T02:17:55.237Z,17.77
2019-03-28T02:20:23.668Z,18.45
2019-03-28T02:22:52.075Z,19.32
2019-03-28T02:25:20.506Z,17.57
2019-03-28T02:27:48.918Z,19.17
2019-03-28T02:30:20.444Z,19.43
2019-03-28T02:35:16.487Z,19.95
2019-03-28T02:37:44.904Z,19.85
2019-03-28T02:40:13.623Z,18.80
2019-03-28T02:42:42.055Z,19.85
2019-03-28T02:45:10.562Z,18.40
2019-03-28T02:47:38.963Z,18.82
2019-03-28T02:50:09.804Z,17.85
2019-03-28T02:52:38.216Z,19.63
2019-03-28T02:55:07.268Z,18.70
2019-03-28T02:57:41.691Z,18.07
2019-03-28T03:00:08.137Z,18.93
2019-03-28T03:02:36.567Z,19.33
2019-03-28T03:05:08.115Z,18.23
2019-03-28T03:07:36.535Z,18.12
2019-03-28T03:10:06.976Z,18.32
2019-03-28T03:12:35.406Z,18.10
2019-03-28T03:15:06.357Z,17.00
2019-03-28T03:17:34.812Z,18.27
2019-03-28T03:20:04.259Z,18.07
2019-03-28T03:22:32.686Z,18.48
2019-03-28T03:25:01.178Z,16.80
2019-03-28T03:27:29.608Z,18.48
2019-03-28T03:29:58.426Z,18.37
2019-03-28T03:32:26.871Z,17.82
2019-03-28T03:34:55.306Z,17.80
2019-03-28T03:37:23.727Z,17.98
2019-03-28T03:39:52.127Z,16.85
2019-03-28T03:42:20.552Z,17.10
2019-03-28T03:44:48.964Z,18.80
2019-03-28T03:47:17.392Z,18.42
2019-03-28T03:49:45.797Z,17.95
2019-03-28T03:52:14.345Z,16.48
2019-03-28T03:54:42.889Z,18.55
2019-03-28T03:57:11.298Z,18.50
2019-03-28T03:59:39.710Z,17.65
2019-03-28T04:02:08.110Z,18.40
2019-03-28T04:04:36.532Z,19.55
2019-03-28T04:07:04.967Z,17.77
2019-03-28T04:09:33.387Z,18.50
2019-03-28T04:12:01.800Z,18.77
2019-03-28T04:14:30.210Z,17.77
2019-03-28T04:16:58.637Z,17.02
2019-03-28T04:19:27.059Z,18.67
2019-03-28T04:21:55.482Z,18.98
2019-03-28T04:24:23.898Z,17.95
2019-03-28T04:26:52.321Z,18.77
2019-03-28T04:29:21.047Z,17.48
2019-03-28T04:31:49.441Z,17.42
2019-03-28T04:34:17.882Z,18.77
2019-03-28T04:36:46.321Z,19.27
2019-03-28T04:39:15.093Z,18.25
2019-03-28T04:41:49.905Z,19.15
2019-03-28T04:44:18.337Z,19.20
2019-03-28T04:46:46.751Z,18.85
2019-03-28T04:49:15.851Z,17.23
2019-03-28T04:51:44.427Z,16.93
2019-03-28T04:54:13.662Z,18.87
2019-03-28T04:56:42.083Z,17.48
2019-03-28T04:59:10.502Z,18.02
2019-03-28T05:01:38.925Z,17.65
2019-03-28T05:04:07.356Z,18.87
2019-03-28T05:06:38.026Z,18.37
2019-03-28T05:09:06.454Z,18.35
2019-03-28T05:11:34.925Z,17.90
2019-03-28T05:14:03.347Z,20.15
2019-03-28T05:16:31.755Z,18.80
2019-03-28T05:19:00.277Z,19.45
2019-03-28T05:21:28.702Z,18.23
2019-03-28T05:23:57.187Z,19.80
2019-03-28T05:26:25.605Z,17.65
2019-03-28T05:28:57.734Z,19.40
2019-03-28T05:31:24.162Z,18.35
2019-03-28T05:33:52.570Z,19.77
2019-03-28T05:36:21.371Z,19.62
2019-03-28T05:38:49.934Z,19.60
2019-03-28T05:41:18.373Z,18.62
2019-03-28T05:43:46.792Z,18.37
2019-03-28T05:46:15.297Z,19.82
2019-03-28T05:48:43.754Z,19.48
2019-03-28T05:51:12.185Z,20.10
2019-03-28T05:53:40.594Z,19.54
2019-03-28T05:56:09.939Z,20.08
2019-03-28T05:58:38.578Z,19.60
2019-03-28T06:01:07.044Z,19.23
2019-03-28T06:03:35.458Z,19.60
2019-03-28T06:06:03.882Z,21.02
2019-03-28T06:08:32.367Z,20.88
2019-03-28T06:11:00.797Z,20.55
2019-03-28T06:13:29.270Z,20.40
2019-03-28T06:15:57.777Z,20.60
2019-03-28T06:18:26.547Z,21.17
2019-03-28T06:20:55.467Z,21.35
2019-03-28T06:23:24.424Z,21.60
2019-03-28T06:25:54.654Z,21.85
2019-03-28T06:28:23.079Z,20.95
2019-03-28T06:30:55.768Z,23.18
2019-03-28T06:33:22.013Z,20.93
2019-03-28T06:35:50.472Z,21.27
2019-03-28T06:38:18.941Z,21.25
2019-03-28T06:40:47.372Z,22.07
2019-03-28T06:43:15.790Z,21.15
2019-03-28T06:45:44.235Z,20.82
2019-03-28T06:48:12.836Z,20.85
2019-03-28T06:50:41.334Z,20.23
2019-03-28T06:53:09.786Z,21.85
2019-03-28T06:55:38.255Z,20.92
2019-03-28T06:58:06.899Z,21.93
2019-03-28T07:00:35.312Z,22.22
2019-03-28T07:03:03.820Z,23.12
2019-03-28T07:05:32.234Z,22.17
2019-03-28T07:08:00.680Z,21.00
2019-03-28T07:10:29.168Z,22.30
2019-03-28T07:12:57.651Z,22.65
2019-03-28T07:15:26.100Z,22.48
2019-03-28T07:17:54.579Z,22.55
2019-03-28T07:20:23.037Z,23.02
2019-03-28T07:22:51.508Z,23.85
2019-03-28T07:25:20.049Z,23.02
2019-03-28T07:27:48.707Z,23.45
2019-03-28T07:30:17.285Z,23.87
2019-03-28T07:32:45.775Z,23.47
2019-03-28T07:35:14.449Z,24.27
2019-03-28T07:37:42.875Z,23.92
2019-03-28T07:40:11.423Z,23.47
2019-03-28T07:42:39.859Z,22.15
2019-03-28T07:45:08.825Z,23.10
2019-03-28T07:47:37.259Z,24.23
2019-03-28T07:50:08.398Z,22.58
2019-03-28T07:52:36.816Z,23.35
2019-03-28T07:55:07.590Z,24.00
2019-03-28T07:57:36.078Z,23.40
2019-03-28T08:00:10.483Z,23.42
2019-03-28T08:02:38.910Z,23.57
2019-03-28T08:05:09.947Z,24.60
2019-03-28T08:07:45.440Z,23.73
2019-03-28T08:10:09.777Z,24.85
2019-03-28T08:12:38.199Z,25.25
2019-03-28T08:15:08.238Z,24.95
2019-03-28T08:17:36.728Z,24.63
2019-03-28T08:20:07.686Z,24.55
2019-03-28T08:22:36.121Z,25.05
2019-03-28T08:25:11.238Z,25.08
2019-03-28T08:27:37.536Z,26.50
2019-03-28T08:30:18.050Z,25.54
2019-03-28T08:32:39.956Z,23.73
2019-03-28T08:35:09.225Z,25.75
2019-03-28T08:37:37.689Z,25.02
2019-03-28T08:40:08.177Z,26.00
2019-03-28T08:42:36.591Z,26.65
2019-03-28T08:45:07.177Z,24.15
2019-03-28T08:47:35.766Z,24.97
2019-03-28T08:50:06.534Z,24.45
2019-03-28T08:52:35.126Z,25.83
2019-03-28T08:55:05.674Z,25.55
2019-03-28T08:57:34.651Z,25.87
2019-03-28T09:00:04.598Z,26.15
2019-03-28T09:02:33.074Z,26.27
2019-03-28T09:05:01.483Z,26.15
2019-03-28T09:07:29.906Z,26.68
2019-03-28T09:09:58.328Z,26.85
2019-03-28T09:12:26.975Z,26.95
2019-03-28T09:14:55.437Z,26.42
2019-03-28T09:17:24.149Z,25.52
2019-03-28T09:19:52.557Z,25.35
2019-03-28T09:22:20.953Z,26.52
2019-03-28T09:24:49.397Z,25.15
2019-03-28T09:27:17.827Z,26.27
2019-03-28T09:29:46.414Z,27.02
2019-03-28T09:32:14.836Z,27.30
2019-03-28T09:34:43.416Z,26.83
2019-03-28T09:37:11.885Z,26.30
2019-03-28T09:39:40.308Z,27.50
2019-03-28T09:42:08.789Z,28.30
2019-03-28T09:44:37.219Z,26.70
2019-03-28T09:47:05.747Z,27.98
2019-03-28T09:49:34.231Z,26.87
2019-03-28T09:52:02.679Z,27.50
2019-03-28T09:54:31.214Z,28.10
2019-03-28T09:56:59.655Z,27.25
2019-03-28T09:59:28.131Z,26.80
2019-03-28T10:01:56.647Z,27.27
2019-03-28T10:04:25.297Z,27.65
2019-03-28T10:06:53.740Z,28.07
2019-03-28T10:09:22.228Z,29.10
2019-03-28T10:11:50.638Z,27.55
2019-03-28T10:14:19.469Z,27.05
2019-03-28T10:16:47.901Z,28.32
2019-03-28T10:19:16.301Z,26.95
2019-03-28T10:21:44.711Z,26.60
2019-03-28T10:24:13.138Z,26.73
2019-03-28T10:26:41.558Z,26.33
2019-03-28T10:29:09.999Z,26.57
2019-03-28T10:31:38.831Z,25.05
2019-03-28T10:34:07.322Z,27.22
2019-03-28T10:36:35.738Z,26.33
2019-03-28T10:39:06.746Z,26.73
2019-03-28T10:41:35.223Z,24.77
2019-03-28T10:44:03.683Z,25.43
2019-03-28T10:46:32.085Z,24.85
2019-03-28T10:49:00.513Z,25.25
2019-03-28T10:51:28.923Z,25.30
2019-03-28T10:53:57.733Z,26.42
2019-03-28T10:56:26.272Z,25.25
2019-03-28T10:58:54.742Z,26.50
2019-03-28T11:01:41.414Z,26.73
2019-03-28T11:03:53.311Z,25.90
2019-03-28T11:06:21.802Z,25.50
2019-03-28T11:08:50.231Z,25.35
2019-03-28T11:11:18.657Z,23.12
2019-03-28T11:13:47.083Z,26.15
2019-03-28T11:16:15.542Z,24.85
2019-03-28T11:18:43.962Z,24.67
2019-03-28T11:21:12.409Z,23.02
2019-03-28T11:23:41.063Z,23.45
2019-03-28T11:26:09.508Z,24.05
2019-03-28T11:28:38.104Z,24.37
2019-03-28T11:31:06.518Z,23.12
2019-03-28T11:33:34.974Z,21.52
2019-03-28T11:36:03.431Z,21.65
2019-03-28T11:38:31.846Z,21.02
2019-03-28T11:41:00.287Z,19.27
2019-03-28T11:43:28.711Z,20.48
2019-03-28T11:45:57.140Z,20.05
2019-03-28T11:48:25.943Z,19.00
2019-03-28T11:50:54.770Z,18.65
2019-03-28T11:53:23.209Z,16.75
2019-03-28T11:55:51.635Z,15.80
2019-03-28T11:58:20.349Z,19.63
2019-03-28T12:00:50.444Z,19.77
2019-03-28T12:03:18.867Z,17.95
2019-03-28T12:05:47.322Z,16.90
2019-03-28T12:08:15.826Z,17.57
2019-03-28T12:10:44.330Z,17.75
2019-03-28T12:13:12.799Z,17.30
2019-03-28T12:15:41.279Z,15.63
2019-03-28T12:18:09.699Z,16.95
2019-03-28T12:20:38.122Z,17.70
2019-03-28T12:23:06.577Z,17.40
2019-03-28T12:25:35.011Z,17.95
2019-03-28T12:28:03.451Z,18.82
2019-03-28T12:30:31.893Z,18.90
2019-03-28T12:33:00.329Z,18.65
2019-03-28T12:35:28.737Z,18.10
2019-03-28T12:37:57.186Z,17.45
2019-03-28T12:40:25.829Z,18.00
2019-03-28T12:42:54.948Z,18.17
2019-03-28T12:45:23.366Z,17.30
2019-03-28T12:47:51.809Z,19.15
2019-03-28T12:50:20.289Z,16.48
2019-03-28T12:52:49.640Z,16.17
2019-03-28T12:55:18.105Z,16.32
2019-03-28T12:57:48.487Z,16.65
2019-03-28T13:00:20.337Z,19.23
2019-03-28T13:02:48.792Z,18.20
2019-03-28T13:05:17.218Z,18.37
2019-03-28T13:07:45.646Z,18.23
2019-03-28T13:10:14.500Z,17.87
2019-03-28T13:12:43.266Z,17.17
2019-03-28T13:15:12.141Z,17.50
2019-03-28T13:17:40.557Z,16.35
2019-03-28T13:20:09.792Z,18.02
2019-03-28T13:22:38.271Z,18.80
2019-03-28T13:25:09.755Z,17.15
2019-03-28T13:27:38.198Z,18.60
2019-03-28T13:30:09.707Z,16.90
2019-03-28T13:32:41.907Z,17.98
2019-03-28T13:35:09.077Z,18.98
2019-03-28T13:37:37.687Z,18.62
2019-03-28T13:40:07.240Z,19.27
2019-03-28T13:42:36.809Z,18.83
2019-03-28T13:45:12.721Z,18.55
2019-03-28T13:47:41.135Z,19.80
2019-03-28T13:50:11.628Z,19.75
2019-03-28T13:52:40.107Z,19.23
2019-03-28T13:55:08.828Z,19.20
2019-03-28T13:57:37.332Z,20.48
2019-03-28T14:00:10.106Z,20.85
2019-03-28T14:02:38.902Z,20.35
2019-03-28T14:05:09.057Z,20.32
2019-03-28T14:07:37.607Z,19.67
2019-03-28T14:10:07.633Z,20.57
2019-03-28T14:12:36.047Z,19.55
2019-03-28T14:15:08.639Z,20.12
2019-03-28T14:17:37.335Z,18.05
2019-03-28T14:20:07.314Z,18.85
2019-03-28T14:22:35.989Z,17.70
2019-03-28T14:25:06.179Z,18.00
2019-03-28T14:27:34.729Z,19.43
2019-03-28T14:30:04.641Z,20.07
2019-03-28T14:32:33.264Z,19.10
2019-03-28T14:35:01.682Z,18.35
2019-03-28T14:37:30.100Z,17.42
2019-03-28T14:39:58.551Z,20.00
2019-03-28T14:42:26.961Z,17.85
2019-03-28T14:44:55.455Z,18.52
2019-03-28T14:47:23.862Z,20.10
2019-03-28T14:49:52.490Z,19.77
2019-03-28T14:52:20.953Z,19.35
2019-03-28T14:54:49.377Z,20.10
2019-03-28T14:57:19.498Z,20.48
2019-03-28T14:59:48.867Z,19.42
2019-03-28T15:02:17.277Z,18.65
2019-03-28T15:04:45.817Z,20.17
2019-03-28T15:07:14.221Z,20.50
2019-03-28T15:09:42.654Z,20.55
2019-03-28T15:12:11.075Z,21.15
2019-03-28T15:14:39.496Z,21.87
2019-03-28T15:17:07.917Z,22.05
2019-03-28T15:19:36.334Z,22.90
2019-03-28T15:22:04.778Z,23.27
2019-03-28T15:24:33.175Z,22.15
2019-03-28T15:27:01.623Z,21.40
2019-03-28T15:29:30.018Z,22.67
2019-03-28T15:31:58.445Z,22.80
2019-03-28T15:34:26.875Z,22.53
2019-03-28T15:36:55.316Z,22.00
2019-03-28T15:39:23.726Z,22.80
2019-03-28T15:41:52.161Z,20.82
2019-03-28T15:44:20.825Z,21.97
2019-03-28T15:46:49.388Z,24.12
2019-03-28T15:49:17.817Z,23.52
2019-03-28T15:51:46.240Z,22.77
2019-03-28T15:54:15.752Z,21.45
2019-03-28T15:56:44.421Z,22.00
2019-03-28T15:59:12.843Z,21.05
2019-03-28T16:01:41.277Z,22.35
2019-03-28T16:04:09.734Z,22.58
2019-03-28T16:06:38.219Z,22.13
2019-03-28T16:09:07.939Z,22.77
2019-03-28T16:11:36.495Z,24.10
2019-03-28T16:14:04.943Z,25.48
2019-03-28T16:16:33.391Z,23.38
2019-03-28T16:19:02.004Z,25.77
2019-03-28T16:21:30.522Z,25.57
2019-03-28T16:23:59.364Z,26.17
2019-03-28T16:26:27.780Z,26.55
2019-03-28T16:28:56.655Z,25.80
2019-03-28T16:31:25.769Z,25.68
2019-03-28T16:34:06.189Z,25.60
2019-03-28T16:36:26.270Z,27.00
2019-03-28T16:38:55.047Z,26.60
2019-03-28T16:41:24.113Z,26.77
2019-03-28T16:43:52.743Z,28.77
2019-03-28T16:46:21.387Z,27.65
2019-03-28T16:48:49.801Z,29.25
2019-03-28T16:51:18.966Z,29.42
2019-03-28T16:53:47.469Z,28.95
2019-03-28T16:56:15.907Z,28.40
2019-03-28T16:58:44.428Z,29.82
2019-03-28T17:01:12.817Z,28.25
2019-03-28T17:03:41.234Z,29.77
2019-03-28T17:06:10.152Z,31.27
2019-03-28T17:08:39.850Z,30.70
2019-03-28T17:11:12.200Z,29.75
2019-03-28T17:16:07.840Z,27.87
2019-03-28T17:18:36.264Z,26.77
2019-03-28T17:21:04.755Z,26.33
2019-03-28T17:23:33.251Z,27.07
2019-03-28T17:26:02.153Z,25.65
2019-03-28T17:28:30.604Z,25.70
2019-03-28T17:30:59.010Z,23.98
2019-03-28T17:33:27.428Z,24.05
2019-03-28T17:35:55.837Z,24.70
2019-03-28T17:38:24.259Z,27.02
2019-03-28T17:40:52.706Z,25.45
2019-03-28T17:43:21.132Z,24.60
2019-03-28T17:45:49.552Z,24.32
2019-03-28T17:48:17.980Z,25.35
2019-03-28T17:50:46.422Z,25.35
2019-03-28T17:53:14.887Z,23.30
2019-03-28T17:55:43.541Z,24.90
2019-03-28T17:58:11.979Z,26.87
2019-03-28T18:00:41.755Z,25.58
2019-03-28T18:03:10.466Z,24.18
2019-03-28T18:05:40.627Z,25.72
2019-03-28T18:08:09.050Z,24.87
2019-03-28T18:10:37.529Z,25.37
2019-03-28T18:13:05.945Z,26.07
2019-03-28T18:15:34.358Z,25.20
2019-03-28T18:18:02.810Z,26.30
2019-03-28T18:20:31.493Z,26.75
2019-03-28T18:23:00.007Z,27.80
2019-03-28T18:25:30.227Z,27.50
2019-03-28T18:27:58.637Z,28.00
2019-03-28T18:30:27.244Z,27.70
2019-03-28T18:32:55.663Z,25.97
2019-03-28T18:35:24.081Z,27.10
2019-03-28T18:37:52.498Z,26.23
2019-03-28T18:40:21.911Z,26.02
2019-03-28T18:42:50.353Z,27.48
2019-03-28T18:45:18.926Z,26.95
2019-03-28T18:47:47.345Z,26.82
2019-03-28T18:50:16.062Z,25.30
2019-03-28T18:52:44.618Z,27.20
2019-03-28T18:55:13.729Z,25.92
2019-03-28T18:57:42.382Z,24.98
2019-03-28T19:00:11.486Z,25.27
2019-03-28T19:02:39.919Z,25.60
2019-03-28T19:05:19.085Z,25.27
2019-03-28T19:07:39.415Z,25.03
2019-03-28T19:10:08.377Z,24.77
2019-03-28T19:12:36.856Z,22.95
2019-03-28T19:15:07.024Z,22.43
2019-03-28T19:17:35.694Z,23.80
2019-03-28T19:20:09.883Z,24.60
2019-03-28T19:22:39.405Z,23.52
2019-03-28T19:25:09.557Z,23.95
2019-03-28T19:27:38.758Z,25.15
2019-03-28T19:30:08.481Z,23.80
2019-03-28T19:32:37.187Z,25.00
2019-03-28T19:35:08.833Z,23.65
2019-03-28T19:37:38.042Z,24.18
2019-03-28T19:40:08.485Z,23.75
2019-03-28T19:42:37.628Z,23.25
2019-03-28T19:45:07.414Z,24.10
2019-03-28T19:47:36.522Z,24.60
2019-03-28T19:50:08.465Z,24.27
2019-03-28T19:52:36.871Z,24.98
2019-03-28T19:55:07.289Z,25.45
2019-03-28T19:57:35.838Z,25.60
2019-03-28T20:00:06.338Z,24.65
2019-03-28T20:02:34.993Z,24.70
2019-03-28T20:05:03.915Z,23.87
2019-03-28T20:07:32.741Z,23.90
2019-03-28T20:10:01.160Z,26.42
2019-03-28T20:12:29.687Z,25.32
2019-03-28T20:15:00.140Z,24.72
2019-03-28T20:17:28.967Z,24.67
2019-03-28T20:19:58.285Z,24.05
2019-03-28T20:22:27.119Z,24.43
2019-03-28T20:24:58.136Z,25.25
2019-03-28T20:27:26.015Z,24.87
2019-03-28T20:29:54.411Z,24.65
2019-03-28T20:32:22.861Z,24.10
2019-03-28T20:34:51.373Z,24.67
2019-03-28T20:37:19.826Z,26.12
2019-03-28T20:39:48.226Z,24.02
2019-03-28T20:42:16.734Z,24.30
2019-03-28T20:44:45.200Z,24.27
2019-03-28T20:47:13.660Z,25.57
2019-03-28T20:49:42.131Z,25.08
2019-03-28T20:52:10.629Z,24.12
2019-03-28T20:54:39.058Z,25.72
2019-03-28T20:57:07.701Z,25.55
2019-03-28T20:59:36.146Z,23.85
2019-03-28T21:02:04.591Z,22.80
2019-03-28T21:04:34.271Z,23.52
2019-03-28T21:07:03.017Z,24.12
2019-03-28T21:09:31.627Z,25.25
2019-03-28T21:12:00.089Z,24.40
2019-03-28T21:14:28.508Z,26.55
2019-03-28T21:16:58.248Z,24.80
2019-03-28T21:19:31.582Z,25.23
2019-03-28T21:22:15.675Z,22.77
2019-03-28T21:25:23.359Z,22.40
2019-03-28T21:27:54.386Z,24.20
2019-03-28T21:30:26.834Z,23.93
2019-03-28T21:32:57.964Z,25.60
2019-03-28T21:35:37.536Z,22.15
2019-03-28T21:38:03.551Z,23.95
2019-03-28T21:40:31.975Z,23.42
2019-03-28T21:43:00.706Z,25.40
2019-03-28T21:45:29.152Z,24.98
2019-03-28T21:47:57.557Z,27.27
2019-03-28T21:50:25.966Z,25.10
2019-03-28T21:52:54.403Z,25.92
2019-03-28T21:55:22.888Z,24.63
2019-03-28T21:57:51.336Z,25.27
2019-03-28T22:00:20.287Z,26.90
2019-03-28T22:02:48.738Z,27.07
2019-03-28T22:05:17.666Z,25.10
2019-03-28T22:07:46.140Z,24.98
2019-03-28T22:10:14.913Z,25.10
2019-03-28T22:12:43.359Z,27.60
2019-03-28T22:15:11.904Z,26.62
2019-03-28T22:17:41.953Z,26.02
2019-03-28T22:20:10.768Z,25.45
2019-03-28T22:22:39.191Z,27.42
2019-03-28T22:25:08.146Z,25.97
2019-03-28T22:27:36.590Z,26.60
2019-03-28T22:30:06.040Z,28.10
2019-03-28T22:32:34.458Z,25.85
2019-03-28T22:35:03.666Z,26.52
2019-03-28T22:37:32.062Z,27.13
2019-03-28T22:40:00.539Z,27.82
2019-03-28T22:42:28.981Z,27.90
2019-03-28T22:44:57.505Z,26.73
2019-03-28T22:47:25.908Z,28.30
2019-03-28T22:49:54.332Z,27.35
2019-03-28T22:52:22.759Z,27.73
2019-03-28T22:54:51.185Z,27.35
2019-03-28T22:57:19.602Z,28.15
2019-03-28T22:59:48.017Z,30.02
2019-03-28T23:02:16.446Z,26.33
2019-03-28T23:04:44.867Z,26.00
2019-03-28T23:07:14.527Z,27.70
2019-03-28T23:09:43.074Z,27.50
2019-03-28T23:12:11.834Z,28.52
2019-03-28T23:14:40.274Z,28.77
2019-03-28T23:17:08.696Z,27.73
2019-03-28T23:19:37.130Z,28.10
2019-03-28T23:22:05.550Z,29.05
2019-03-28T23:24:33.981Z,27.50
2019-03-28T23:27:02.402Z,27.00
2019-03-28T23:32:08.535Z,28.80
2019-03-28T23:34:37.681Z,28.75
2019-03-28T23:37:06.097Z,26.68
2019-03-28T23:39:34.530Z,27.62
2019-03-28T23:42:02.950Z,28.12
2019-03-28T23:44:31.386Z,26.47
2019-03-28T23:46:59.795Z,27.62
2019-03-28T23:49:28.546Z,28.52
2019-03-28T23:51:56.967Z,26.77
2019-03-28T23:54:25.475Z,27.07
2019-03-28T23:56:54.673Z,27.45
2019-03-28T23:59:23.078Z,26.68
